createdAt,value
2023-05-23T00:01:26.672Z,99.90
2023-05-23T00:03:56.458Z,99.90
2023-05-23T00:06:25.206Z,99.90
2023-05-23T00:08:53.838Z,99.90
2023-05-23T00:11:27.147Z,99.90
2023-05-23T00:13:55.711Z,99.90
2023-05-23T00:16:24.169Z,99.90
2023-05-23T00:18:53.611Z,99.90
2023-05-23T00:21:22.161Z,99.90
2023-05-23T00:23:50.658Z,99.90
2023-05-23T00:26:19.119Z,99.90
2023-05-23T00:28:48.923Z,99.90
2023-05-23T00:31:17.789Z,99.90
2023-05-23T00:33:46.398Z,99.90
2023-05-23T00:36:14.912Z,99.90
2023-05-23T00:38:45.914Z,99.90
2023-05-23T00:41:14.454Z,99.90
2023-05-23T00:43:43.016Z,99.90
2023-05-23T00:46:13.263Z,99.90
2023-05-23T00:48:41.720Z,99.90
2023-05-23T00:51:10.187Z,99.90
2023-05-23T00:53:38.649Z,99.90
2023-05-23T00:56:07.548Z,99.90
2023-05-23T00:58:36.143Z,99.90
2023-05-23T01:01:04.661Z,99.90
2023-05-23T01:03:34.534Z,99.90
2023-05-23T01:06:03.516Z,99.90
2023-05-23T01:08:31.969Z,99.90
2023-05-23T01:11:05.288Z,99.90
2023-05-23T01:13:41.684Z,99.90
2023-05-23T01:16:15.483Z,99.90
2023-05-23T01:18:54.735Z,99.90
2023-05-23T01:21:24.815Z,99.90
2023-05-23T01:24:22.806Z,99.90
2023-05-23T01:27:02.868Z,99.90
2023-05-23T01:29:35.446Z,99.90
2023-05-23T01:32:05.222Z,99.90
2023-05-23T01:34:36.571Z,99.90
2023-05-23T01:37:09.864Z,99.90
2023-05-23T01:39:38.444Z,99.90
2023-05-23T01:42:07.642Z,99.90
2023-05-23T01:44:37.872Z,99.90
2023-05-23T01:47:08.529Z,99.90
2023-05-23T01:49:38.633Z,99.90
2023-05-23T01:52:10.303Z,99.90
2023-05-23T01:54:42.549Z,99.90
2023-05-23T01:57:11.932Z,99.90
2023-05-23T01:59:41.932Z,99.90
2023-05-23T02:02:10.591Z,99.90
2023-05-23T02:04:39.152Z,99.90
2023-05-23T02:07:07.708Z,99.90
2023-05-23T02:09:36.149Z,99.90
2023-05-23T02:12:04.889Z,99.90
2023-05-23T02:14:33.386Z,99.90
2023-05-23T02:17:04.503Z,99.90
2023-05-23T02:19:33.051Z,99.90
2023-05-23T02:22:01.596Z,99.90
2023-05-23T02:24:30.062Z,99.90
2023-05-23T02:26:58.500Z,99.90
2023-05-23T02:29:26.937Z,99.90
2023-05-23T02:31:55.426Z,99.90
2023-05-23T02:34:25.278Z,99.90
2023-05-23T02:36:53.864Z,99.90
2023-05-23T02:39:22.307Z,99.90
2023-05-23T02:41:50.863Z,99.90
2023-05-23T02:44:19.786Z,99.90
2023-05-23T02:46:48.307Z,99.90
2023-05-23T02:49:16.855Z,99.90
2023-05-23T02:51:46.676Z,99.90
2023-05-23T02:54:15.156Z,99.90
2023-05-23T02:56:43.692Z,99.90
2023-05-23T02:59:12.363Z,99.90
2023-05-23T03:01:40.972Z,99.90
2023-05-23T03:04:09.729Z,99.90
2023-05-23T03:06:38.186Z,99.90
2023-05-23T03:09:08.196Z,99.90
2023-05-23T03:11:36.630Z,99.90
2023-05-23T03:14:05.107Z,99.90
2023-05-23T03:16:33.778Z,99.90
2023-05-23T03:19:02.449Z,99.90
2023-05-23T03:21:31.346Z,99.90
2023-05-23T03:23:59.795Z,99.90
2023-05-23T03:26:29.608Z,99.90
2023-05-23T03:28:58.344Z,99.90
2023-05-23T03:31:26.912Z,99.90
2023-05-23T03:33:55.396Z,99.90
2023-05-23T03:36:26.152Z,99.90
2023-05-23T03:38:54.983Z,99.90
2023-05-23T03:41:23.447Z,99.90
2023-05-23T03:43:53.378Z,99.90
2023-05-23T03:46:22.028Z,99.90
2023-05-23T03:48:51.380Z,99.90
2023-05-23T03:51:19.878Z,99.90
2023-05-23T03:53:48.432Z,99.90
2023-05-23T03:56:16.913Z,99.90
2023-05-23T03:58:45.992Z,99.90
2023-05-23T04:01:16.000Z,99.90
2023-05-23T04:03:44.539Z,99.90
2023-05-23T04:06:14.410Z,99.90
2023-05-23T04:08:43.613Z,99.90
2023-05-23T04:11:12.082Z,99.90
2023-05-23T04:13:40.558Z,99.90
2023-05-23T04:16:09.574Z,99.90
2023-05-23T04:18:39.852Z,99.90
2023-05-23T04:21:08.309Z,99.90
2023-05-23T04:23:36.779Z,99.90
2023-05-23T04:26:05.811Z,99.90
2023-05-23T04:28:35.396Z,99.90
2023-05-23T04:31:04.289Z,99.90
2023-05-23T04:33:34.232Z,99.90
2023-05-23T04:36:05.019Z,99.90
2023-05-23T04:38:33.767Z,99.90
2023-05-23T04:41:03.334Z,99.90
2023-05-23T04:43:33.701Z,99.90
2023-05-23T04:46:02.281Z,99.90
2023-05-23T04:48:31.501Z,99.90
2023-05-23T04:51:02.124Z,99.90
2023-05-23T04:53:32.069Z,99.90
2023-05-23T04:56:00.511Z,99.90
2023-05-23T04:58:29.361Z,99.90
2023-05-23T05:00:57.969Z,99.90
2023-05-23T05:03:26.432Z,99.90
2023-05-23T05:05:55.239Z,99.90
2023-05-23T05:08:23.829Z,99.90
2023-05-23T05:10:53.634Z,99.90
2023-05-23T05:13:22.089Z,99.90
2023-05-23T05:15:50.621Z,99.90
2023-05-23T05:18:19.087Z,99.90
2023-05-23T05:20:47.580Z,99.90
2023-05-23T05:23:16.199Z,99.90
2023-05-23T05:25:44.753Z,99.90
2023-05-23T05:28:14.604Z,99.90
2023-05-23T05:30:43.524Z,99.90
2023-05-23T05:33:12.235Z,99.90
2023-05-23T05:35:40.670Z,99.90
2023-05-23T05:38:10.993Z,99.90
2023-05-23T05:40:39.819Z,99.90
2023-05-23T05:43:08.460Z,99.90
2023-05-23T05:45:38.516Z,99.90
2023-05-23T05:48:07.933Z,99.90
2023-05-23T05:50:36.604Z,99.90
2023-05-23T05:53:05.184Z,99.50
2023-05-23T05:55:33.650Z,97.70
2023-05-23T05:58:02.206Z,95.90
2023-05-23T06:00:30.728Z,94.50
2023-05-23T06:03:00.703Z,94.40
2023-05-23T06:05:29.181Z,93.10
2023-05-23T06:07:57.709Z,92.00
2023-05-23T06:10:26.434Z,90.10
2023-05-23T06:12:54.941Z,89.80
2023-05-23T06:15:23.501Z,90.00
2023-05-23T06:17:52.690Z,90.50
2023-05-23T06:20:22.672Z,87.50
2023-05-23T06:22:51.250Z,87.20
2023-05-23T06:25:19.669Z,85.60
2023-05-23T06:27:48.222Z,84.30
2023-05-23T06:30:17.194Z,85.60
2023-05-23T06:32:45.723Z,86.60
2023-05-23T06:35:14.301Z,85.20
2023-05-23T06:37:45.795Z,83.80
2023-05-23T06:40:14.721Z,76.00
2023-05-23T06:42:43.209Z,77.40
2023-05-23T06:45:14.204Z,78.90
2023-05-23T06:47:45.796Z,81.40
2023-05-23T06:50:14.367Z,80.80
2023-05-23T06:52:44.178Z,82.40
2023-05-23T06:55:15.542Z,82.00
2023-05-23T06:57:43.973Z,83.70
2023-05-23T07:00:14.001Z,81.80
2023-05-23T07:02:42.634Z,79.70
2023-05-23T07:05:11.290Z,79.30
2023-05-23T07:07:40.111Z,77.50
2023-05-23T07:10:11.301Z,77.70
2023-05-23T07:12:39.798Z,78.10
2023-05-23T07:15:09.537Z,78.60
2023-05-23T07:17:37.984Z,77.70
2023-05-23T07:20:07.462Z,78.30
2023-05-23T07:22:35.973Z,79.00
2023-05-23T07:25:04.972Z,75.30
2023-05-23T07:27:35.303Z,76.60
2023-05-23T07:30:04.707Z,76.40
2023-05-23T07:32:33.262Z,76.30
2023-05-23T07:35:01.777Z,77.40
2023-05-23T07:37:30.242Z,77.70
2023-05-23T07:39:58.764Z,78.30
2023-05-23T07:42:27.266Z,78.00
2023-05-23T07:44:57.046Z,78.70
2023-05-23T07:47:25.555Z,79.60
2023-05-23T07:49:54.041Z,80.30
2023-05-23T07:52:22.455Z,79.60
2023-05-23T07:54:50.919Z,79.10
2023-05-23T07:57:19.448Z,80.40
2023-05-23T07:59:47.864Z,78.00
2023-05-23T08:02:17.789Z,76.60
2023-05-23T08:04:46.762Z,78.10
2023-05-23T08:07:17.332Z,70.80
2023-05-23T08:09:47.115Z,71.70
2023-05-23T08:12:15.593Z,70.50
2023-05-23T08:14:51.367Z,71.90
2023-05-23T08:17:22.567Z,66.50
2023-05-23T08:19:51.154Z,65.50
2023-05-23T08:22:19.599Z,67.00
2023-05-23T08:24:48.062Z,69.00
2023-05-23T08:27:16.501Z,66.60
2023-05-23T08:29:44.957Z,68.80
2023-05-23T08:32:13.628Z,69.00
2023-05-23T08:34:44.059Z,66.70
2023-05-23T08:37:12.646Z,69.20
2023-05-23T08:39:41.708Z,64.90
2023-05-23T08:42:10.333Z,65.60
2023-05-23T08:44:40.799Z,65.40
2023-05-23T08:47:10.043Z,67.20
2023-05-23T08:49:39.590Z,70.00
2023-05-23T08:52:13.439Z,68.00
2023-05-23T08:54:42.950Z,64.20
2023-05-23T08:57:11.691Z,65.00
2023-05-23T08:59:40.508Z,68.70
2023-05-23T09:02:13.100Z,70.60
2023-05-23T09:04:41.564Z,68.90
2023-05-23T09:07:11.794Z,71.80
2023-05-23T09:09:40.500Z,71.40
2023-05-23T09:12:10.285Z,70.50
2023-05-23T09:14:38.819Z,73.20
2023-05-23T09:17:07.237Z,72.10
2023-05-23T09:19:35.863Z,74.00
2023-05-23T09:22:04.860Z,72.90
2023-05-23T09:24:39.307Z,71.70
2023-05-23T09:27:08.334Z,69.80
2023-05-23T09:29:39.642Z,70.30
2023-05-23T09:32:17.910Z,70.20
2023-05-23T09:34:57.426Z,72.20
2023-05-23T09:37:31.277Z,69.60
2023-05-23T09:40:02.319Z,66.10
2023-05-23T09:42:35.171Z,71.80
2023-05-23T09:45:04.872Z,71.50
2023-05-23T09:47:33.649Z,69.40
2023-05-23T09:50:02.149Z,67.80
2023-05-23T09:52:37.370Z,71.00
2023-05-23T09:55:08.493Z,70.30
2023-05-23T09:57:38.392Z,67.80
2023-05-23T10:00:11.123Z,69.30
2023-05-23T10:03:10.721Z,66.80
2023-05-23T10:05:43.104Z,65.50
2023-05-23T10:08:16.236Z,66.80
2023-05-23T10:11:32.220Z,67.80
2023-05-23T10:14:03.416Z,74.50
2023-05-23T10:16:40.853Z,76.40
2023-05-23T10:19:15.787Z,74.50
2023-05-23T10:21:46.878Z,75.30
2023-05-23T10:24:16.108Z,74.00
2023-05-23T10:26:45.132Z,77.80
2023-05-23T10:29:15.161Z,78.20
2023-05-23T10:31:43.897Z,78.70
2023-05-23T10:34:16.785Z,80.10
2023-05-23T10:36:52.475Z,83.10
2023-05-23T10:39:26.189Z,84.40
2023-05-23T10:42:00.254Z,85.60
2023-05-23T10:44:31.811Z,85.90
2023-05-23T10:47:02.444Z,88.40
2023-05-23T10:49:41.717Z,88.40
2023-05-23T10:52:11.490Z,88.20
2023-05-23T10:54:45.308Z,88.20
2023-05-23T10:57:17.599Z,86.80
2023-05-23T10:59:48.456Z,89.60
2023-05-23T11:02:17.818Z,83.90
2023-05-23T11:04:48.338Z,83.40
2023-05-23T11:07:33.207Z,81.30
2023-05-23T11:10:05.610Z,86.60
2023-05-23T11:12:42.311Z,84.20
2023-05-23T11:15:22.525Z,82.70
2023-05-23T11:17:53.523Z,78.20
2023-05-23T11:20:24.517Z,76.20
2023-05-23T11:23:00.096Z,82.90
2023-05-23T11:25:42.436Z,72.20
2023-05-23T11:28:11.809Z,64.30
2023-05-23T11:30:42.636Z,65.10
2023-05-23T11:33:13.794Z,62.20
2023-05-23T11:35:42.817Z,63.20
2023-05-23T11:38:11.735Z,65.40
2023-05-23T11:40:41.632Z,65.20
2023-05-23T11:43:12.078Z,66.80
2023-05-23T11:45:42.704Z,66.20
2023-05-23T11:48:11.910Z,67.60
2023-05-23T11:50:48.331Z,75.30
2023-05-23T11:53:20.587Z,77.90
2023-05-23T11:55:54.408Z,81.60
2023-05-23T11:58:23.838Z,84.30
2023-05-23T12:00:55.340Z,88.60
2023-05-23T12:03:24.223Z,90.90
2023-05-23T12:05:52.986Z,91.00
2023-05-23T12:08:21.519Z,92.00
2023-05-23T12:10:54.448Z,92.50
2023-05-23T12:13:26.164Z,93.40
2023-05-23T12:16:00.627Z,93.50
2023-05-23T12:18:30.039Z,93.70
2023-05-23T12:21:01.904Z,94.10
2023-05-23T12:23:33.096Z,95.10
2023-05-23T12:26:06.845Z,97.50
2023-05-23T12:28:39.931Z,98.10
2023-05-23T12:31:13.783Z,99.60
2023-05-23T12:33:43.994Z,99.90
2023-05-23T12:36:12.723Z,99.90
2023-05-23T12:38:45.233Z,99.90
2023-05-23T12:41:14.453Z,99.90
2023-05-23T12:43:50.337Z,99.90
2023-05-23T12:46:20.525Z,99.90
2023-05-23T12:48:49.016Z,99.90
2023-05-23T12:51:17.718Z,99.90
2023-05-23T12:53:46.354Z,99.90
2023-05-23T12:56:14.833Z,99.90
2023-05-23T12:58:43.578Z,99.90
2023-05-23T13:01:12.339Z,99.90
2023-05-23T13:03:42.471Z,99.90
2023-05-23T13:06:11.506Z,99.90
2023-05-23T13:08:40.035Z,99.90
2023-05-23T13:11:08.938Z,99.90
2023-05-23T13:13:37.451Z,99.90
2023-05-23T13:16:06.299Z,99.90
2023-05-23T13:18:34.789Z,99.90
2023-05-23T13:21:05.064Z,99.90
2023-05-23T13:23:33.578Z,99.90
2023-05-23T13:26:02.165Z,99.90
2023-05-23T13:28:31.067Z,99.90
2023-05-23T13:31:00.009Z,99.90
2023-05-23T13:33:28.836Z,99.90
2023-05-23T13:35:57.370Z,99.90
2023-05-23T13:38:27.793Z,99.90
2023-05-23T13:40:56.365Z,99.90
2023-05-23T13:43:24.913Z,99.90
2023-05-23T13:45:53.618Z,99.90
2023-05-23T13:48:22.201Z,99.90
2023-05-23T13:50:50.710Z,99.90
2023-05-23T13:53:22.394Z,99.90
2023-05-23T13:55:52.366Z,99.90
2023-05-23T13:58:22.350Z,99.90
2023-05-23T14:00:53.540Z,99.90
2023-05-23T14:03:22.298Z,99.90
2023-05-23T14:05:50.995Z,99.90
2023-05-23T14:08:20.062Z,99.90
2023-05-23T14:10:48.542Z,99.90
2023-05-23T14:13:19.657Z,99.90
2023-05-23T14:15:49.314Z,99.90
2023-05-23T14:18:18.042Z,99.90
2023-05-23T14:20:46.779Z,99.90
2023-05-23T14:23:15.340Z,99.90
2023-05-23T14:25:43.900Z,99.90
2023-05-23T14:28:12.520Z,99.90
2023-05-23T14:30:42.393Z,99.90
2023-05-23T14:33:11.348Z,99.90
2023-05-23T14:35:40.299Z,99.90
2023-05-23T14:38:08.894Z,99.90
2023-05-23T14:40:37.410Z,99.90
2023-05-23T14:43:06.195Z,99.90
2023-05-23T14:45:34.744Z,99.90
2023-05-23T14:48:05.627Z,99.90
2023-05-23T14:50:34.464Z,99.90
2023-05-23T14:53:03.110Z,99.90
2023-05-23T14:55:31.644Z,99.90
2023-05-23T14:58:00.204Z,99.90
2023-05-23T15:00:28.687Z,99.90
2023-05-23T15:02:57.222Z,99.90
2023-05-23T15:05:27.195Z,99.90
2023-05-23T15:07:56.472Z,99.90
2023-05-23T15:10:25.054Z,99.90
2023-05-23T15:12:53.578Z,99.90
2023-05-23T15:15:23.553Z,99.90
2023-05-23T15:17:52.778Z,99.90
2023-05-23T15:20:21.273Z,99.90
2023-05-23T15:22:51.725Z,99.90
2023-05-23T15:25:30.342Z,99.90
2023-05-23T15:28:07.194Z,99.90
2023-05-23T15:30:36.382Z,99.90
2023-05-23T15:33:04.975Z,99.90
2023-05-23T15:35:33.463Z,99.90
2023-05-23T15:38:05.508Z,99.90
2023-05-23T15:40:37.099Z,99.90
2023-05-23T15:43:05.795Z,99.90
2023-05-23T15:45:34.305Z,99.90
2023-05-23T15:48:02.759Z,99.90
2023-05-23T15:50:31.758Z,99.90
2023-05-23T15:53:00.247Z,99.90
2023-05-23T15:55:30.599Z,99.90
2023-05-23T15:57:59.148Z,99.90
2023-05-23T16:00:27.903Z,99.90
2023-05-23T16:02:56.394Z,99.90
2023-05-23T16:05:25.766Z,99.90
2023-05-23T16:07:54.236Z,99.90
2023-05-23T16:10:24.009Z,99.90
2023-05-23T16:12:53.877Z,99.90
2023-05-23T16:15:22.549Z,99.90
2023-05-23T16:17:51.031Z,99.90
2023-05-23T16:20:19.719Z,99.90
2023-05-23T16:22:48.423Z,99.90
2023-05-23T16:25:16.997Z,99.90
2023-05-23T16:27:45.470Z,99.90
2023-05-23T16:30:15.662Z,99.90
2023-05-23T16:32:44.233Z,99.90
2023-05-23T16:35:12.688Z,99.90
2023-05-23T16:37:41.154Z,99.90
2023-05-23T16:40:10.735Z,99.90
2023-05-23T16:42:39.304Z,99.90
2023-05-23T16:45:09.055Z,99.90
2023-05-23T16:47:39.064Z,99.90
2023-05-23T16:50:09.266Z,99.90
2023-05-23T16:52:39.585Z,99.90
2023-05-23T16:55:08.442Z,99.90
2023-05-23T16:57:37.026Z,99.90
2023-05-23T17:00:07.589Z,99.90
2023-05-23T17:02:36.261Z,99.90
2023-05-23T17:05:07.235Z,99.90
2023-05-23T17:07:35.742Z,99.90
2023-05-23T17:10:04.411Z,99.90
2023-05-23T17:12:32.895Z,99.90
2023-05-23T17:15:01.364Z,99.90
2023-05-23T17:17:29.860Z,99.90
2023-05-23T17:19:58.474Z,99.90
2023-05-23T17:22:28.325Z,99.90
2023-05-23T17:24:56.821Z,99.90
2023-05-23T17:27:25.297Z,99.90
2023-05-23T17:29:53.766Z,99.90
2023-05-23T17:32:22.302Z,99.90
2023-05-23T17:34:51.353Z,99.90
2023-05-23T17:37:20.212Z,99.90
2023-05-23T17:39:51.073Z,99.90
2023-05-23T17:42:19.570Z,99.90
2023-05-23T17:44:48.029Z,99.90
2023-05-23T17:47:18.317Z,99.90
2023-05-23T17:49:46.810Z,99.90
2023-05-23T17:52:15.561Z,99.90
2023-05-23T17:54:44.020Z,99.90
2023-05-23T17:57:13.953Z,99.90
2023-05-23T17:59:42.429Z,99.90
2023-05-23T18:02:10.916Z,99.90
2023-05-23T18:04:39.718Z,99.90
2023-05-23T18:07:10.733Z,99.90
2023-05-23T18:09:39.194Z,99.90
2023-05-23T18:12:08.097Z,99.90
2023-05-23T18:14:39.339Z,99.90
2023-05-23T18:17:08.525Z,99.90
2023-05-23T18:19:37.560Z,99.90
2023-05-23T18:22:06.591Z,99.90
2023-05-23T18:24:35.085Z,99.90
2023-05-23T18:27:04.560Z,99.90
2023-05-23T18:29:33.257Z,99.90
2023-05-23T18:32:03.096Z,99.90
2023-05-23T18:34:31.964Z,99.90
2023-05-23T18:37:02.996Z,99.90
2023-05-23T18:39:31.535Z,99.90
2023-05-23T18:42:00.068Z,99.90
2023-05-23T18:44:28.729Z,99.90
2023-05-23T18:46:57.440Z,99.90
2023-05-23T18:49:27.470Z,99.90
2023-05-23T18:51:56.102Z,99.90
2023-05-23T18:54:24.615Z,99.90
2023-05-23T18:56:53.045Z,99.90
2023-05-23T18:59:21.964Z,99.90
2023-05-23T19:01:50.403Z,99.90
2023-05-23T19:04:19.342Z,99.90
2023-05-23T19:06:49.552Z,99.90
2023-05-23T19:09:18.043Z,99.90
2023-05-23T19:11:46.545Z,99.90
2023-05-23T19:14:15.012Z,99.90
2023-05-23T19:16:43.626Z,99.90
2023-05-23T19:19:12.425Z,99.90
2023-05-23T19:21:40.896Z,99.90
2023-05-23T19:24:11.859Z,99.90
2023-05-23T19:26:42.511Z,99.90
2023-05-23T19:29:11.519Z,99.90
2023-05-23T19:31:40.184Z,99.90
2023-05-23T19:34:08.711Z,99.90
2023-05-23T19:36:37.377Z,99.90
2023-05-23T19:39:06.906Z,99.90
2023-05-23T19:41:36.997Z,99.90
2023-05-23T19:44:05.693Z,99.90
2023-05-23T19:46:34.325Z,99.90
2023-05-23T19:49:03.049Z,99.90
2023-05-23T19:51:31.746Z,99.90
2023-05-23T19:54:00.296Z,99.90
2023-05-23T19:56:28.912Z,99.90
2023-05-23T19:58:58.826Z,99.90
2023-05-23T20:01:27.664Z,99.90
2023-05-23T20:03:56.214Z,99.90
2023-05-23T20:06:24.705Z,99.90
2023-05-23T20:08:53.167Z,99.90
2023-05-23T20:11:22.446Z,99.90
2023-05-23T20:13:50.863Z,99.90
2023-05-23T20:16:21.889Z,99.90
2023-05-23T20:18:51.088Z,99.90
2023-05-23T20:21:19.628Z,99.90
2023-05-23T20:23:49.121Z,99.90
2023-05-23T20:26:17.638Z,99.90
2023-05-23T20:28:46.057Z,99.90
2023-05-23T20:31:14.620Z,99.90
2023-05-23T20:33:44.523Z,99.90
2023-05-23T20:36:13.011Z,99.90
2023-05-23T20:38:42.265Z,99.90
2023-05-23T20:41:11.280Z,99.90
2023-05-23T20:43:39.653Z,99.90
2023-05-23T20:46:09.268Z,99.90
2023-05-23T20:48:37.762Z,99.90
2023-05-23T20:51:08.112Z,99.90
2023-05-23T20:53:36.852Z,99.90
2023-05-23T20:56:06.090Z,99.90
2023-05-23T20:58:34.648Z,99.90
2023-05-23T21:01:03.162Z,99.90
2023-05-23T21:03:31.798Z,99.90
2023-05-23T21:06:00.438Z,99.90
2023-05-23T21:08:31.787Z,99.90
2023-05-23T21:11:02.279Z,99.90
2023-05-23T21:13:30.849Z,99.90
2023-05-23T21:15:59.337Z,99.90
2023-05-23T21:18:27.805Z,99.90
2023-05-23T21:20:56.311Z,99.90
2023-05-23T21:23:24.774Z,99.90
2023-05-23T21:25:54.739Z,99.90
2023-05-23T21:28:23.387Z,99.90
2023-05-23T21:30:52.357Z,99.90
2023-05-23T21:33:21.107Z,99.90
2023-05-23T21:35:49.884Z,99.90
2023-05-23T21:38:18.515Z,99.90
2023-05-23T21:40:47.037Z,99.90
2023-05-23T21:43:16.837Z,99.90
2023-05-23T21:45:45.321Z,99.90
2023-05-23T21:48:13.736Z,99.90
2023-05-23T21:50:42.330Z,99.90
2023-05-23T21:53:11.007Z,99.90
2023-05-23T21:55:39.595Z,99.90
2023-05-23T21:58:08.050Z,99.90
2023-05-23T22:00:38.759Z,99.90
2023-05-23T22:03:07.384Z,99.90
2023-05-23T22:05:35.966Z,99.90
2023-05-23T22:08:04.584Z,99.90
2023-05-23T22:10:36.749Z,99.90
2023-05-23T22:13:05.394Z,99.90
2023-05-23T22:15:35.344Z,99.90
2023-05-23T22:18:05.486Z,99.90
2023-05-23T22:20:38.247Z,99.90
2023-05-23T22:23:07.472Z,99.90
2023-05-23T22:25:35.918Z,99.90
2023-05-23T22:28:04.435Z,99.90
2023-05-23T22:30:32.845Z,99.90
2023-05-23T22:33:01.738Z,99.90
2023-05-23T22:35:32.135Z,99.90
2023-05-23T22:38:00.892Z,99.90
2023-05-23T22:40:29.393Z,99.90
2023-05-23T22:42:57.963Z,99.90
2023-05-23T22:45:28.642Z,99.90
2023-05-23T22:47:58.198Z,99.90
2023-05-23T22:50:27.039Z,99.90
2023-05-23T22:52:58.367Z,99.90
2023-05-23T22:55:26.817Z,99.90
2023-05-23T22:57:55.273Z,99.90
2023-05-23T23:00:23.940Z,99.90
2023-05-23T23:02:53.799Z,99.90
2023-05-23T23:05:23.004Z,99.90
2023-05-23T23:07:51.440Z,99.90
2023-05-23T23:10:21.445Z,99.90
2023-05-23T23:12:49.876Z,99.90
2023-05-23T23:15:18.349Z,99.90
2023-05-23T23:17:46.880Z,99.90
2023-05-23T23:20:17.337Z,99.90
2023-05-23T23:22:47.094Z,99.90
2023-05-23T23:25:15.538Z,99.90
2023-05-23T23:27:45.646Z,99.90
2023-05-23T23:30:14.449Z,99.90
2023-05-23T23:32:43.007Z,99.90
2023-05-23T23:35:11.473Z,99.90
2023-05-23T23:37:40.369Z,99.90
2023-05-23T23:40:09.989Z,99.90
2023-05-23T23:42:38.542Z,99.90
2023-05-23T23:45:09.439Z,99.90
2023-05-23T23:47:37.927Z,99.90
2023-05-23T23:50:07.698Z,99.90
2023-05-23T23:52:37.188Z,99.90
2023-05-23T23:55:06.457Z,99.90
2023-05-23T23:57:34.869Z,99.90
